< < Back
Terminal Aerodrome Forecast


Current Version              Previous Versions:   1  2  3  4  5  6  7  8  9  

Terminal Aerodrome Forecast

268
FTUS42 KMLB 281736
TAFDAB
TAF
KDAB 281736Z 2818/2918 04013KT P6SM SCT035
     FM290200 01005KT P6SM SCT060 SCT250
     FM290700 24003KT P6SM SCT060 BKN250
     FM291400 27007KT P6SM SCT030 SCT250=



Latest METAR

477
SAUS80 KWBC 281800 CCA
MTRDAB
METAR KDAB 281753Z 01012KT 10SM FEW031TCU FEW200 29/22 A3002 RMK AO2
SLP163 TCU S-W-NW CB DSNT NW TCU DSNT NE-E T02940217 10306
20233 58011


USA.gov is the U.S. government's official web portal to all federal, state and local government web resources and services.